Goose Bay, Canada
Current Conditions -  °F | °C
As of 6:00 PM on Tuesday 25 Nov 2014 (Local Time) from CYYR Reporting Station
Rain Showers Rain Showers  
Wind Chill: 32°   Ceiling: 8600
Heat Index: 39°   Visibility: 15mi
Dew Point: 32°   Wind: 10mph
Humidity: 75%   Direction: 260°W
Pressure: 29.12"   Gusts: 21mph
Location:  53.31°N, 60.41°W
Report Text: CYYR 252200Z 26009G18KT 15SM -SHRA SCT038 BKN086 04/00 A2912 RMK SC3AC4 SLP862
Loading
Personal Weather Stations






























Interactive Weather Map New forecast layout! Learn more

10-Day Weather Forecast

Advertisements
Track Severe Weather on mobile